sensor_id;sensor_type;location;lat;lon;timestamp;P1;durP1;ratioP1;P2;durP2;ratioP2
55776;SDS011;54079;44.540;18.784;2023-02-28T00:00:32;10.85;;;8.95;;
55776;SDS011;54079;44.540;18.784;2023-02-28T00:02:59;9.10;;;7.47;;
55776;SDS011;54079;44.540;18.784;2023-02-28T00:05:26;8.60;;;7.47;;
55776;SDS011;54079;44.540;18.784;2023-02-28T00:07:52;9.13;;;7.40;;
55776;SDS011;54079;44.540;18.784;2023-02-28T00:10:20;8.48;;;7.55;;
55776;SDS011;54079;44.540;18.784;2023-02-28T00:12:52;10.32;;;8.63;;
55776;SDS011;54079;44.540;18.784;2023-02-28T00:15:19;8.40;;;6.95;;
55776;SDS011;54079;44.540;18.784;2023-02-28T00:17:47;9.82;;;8.13;;
55776;SDS011;54079;44.540;18.784;2023-02-28T00:20:14;8.02;;;6.72;;
55776;SDS011;54079;44.540;18.784;2023-02-28T00:22:41;10.00;;;7.15;;
55776;SDS011;54079;44.540;18.784;2023-02-28T00:25:10;8.55;;;7.05;;
55776;SDS011;54079;44.540;18.784;2023-02-28T00:27:38;9.10;;;7.68;;
55776;SDS011;54079;44.540;18.784;2023-02-28T00:30:05;10.68;;;8.07;;
55776;SDS011;54079;44.540;18.784;2023-02-28T00:32:34;10.52;;;7.90;;
55776;SDS011;54079;44.540;18.784;2023-02-28T00:35:01;13.65;;;9.00;;
55776;SDS011;54079;44.540;18.784;2023-02-28T00:37:29;10.15;;;8.43;;
55776;SDS011;54079;44.540;18.784;2023-02-28T00:39:55;10.98;;;8.75;;
55776;SDS011;54079;44.540;18.784;2023-02-28T00:42:21;7.90;;;6.70;;
55776;SDS011;54079;44.540;18.784;2023-02-28T00:44:48;9.80;;;7.30;;
55776;SDS011;54079;44.540;18.784;2023-02-28T00:47:13;7.93;;;6.70;;
55776;SDS011;54079;44.540;18.784;2023-02-28T00:49:40;11.00;;;8.90;;
55776;SDS011;54079;44.540;18.784;2023-02-28T00:52:06;10.50;;;8.50;;
55776;SDS011;54079;44.540;18.784;2023-02-28T00:54:32;10.18;;;8.98;;
55776;SDS011;54079;44.540;18.784;2023-02-28T00:56:58;11.20;;;8.95;;
55776;SDS011;54079;44.540;18.784;2023-02-28T00:59:24;11.07;;;9.20;;
55776;SDS011;54079;44.540;18.784;2023-02-28T01:01:50;13.45;;;10.73;;
55776;SDS011;54079;44.540;18.784;2023-02-28T01:04:16;14.18;;;11.00;;
55776;SDS011;54079;44.540;18.784;2023-02-28T01:06:42;15.38;;;11.63;;
55776;SDS011;54079;44.540;18.784;2023-02-28T01:09:09;13.57;;;11.00;;
55776;SDS011;54079;44.540;18.784;2023-02-28T01:11:35;16.75;;;12.88;;
55776;SDS011;54079;44.540;18.784;2023-02-28T01:14:01;16.30;;;12.98;;
55776;SDS011;54079;44.540;18.784;2023-02-28T01:16:29;16.98;;;12.63;;
55776;SDS011;54079;44.540;18.784;2023-02-28T01:18:55;18.58;;;12.35;;
55776;SDS011;54079;44.540;18.784;2023-02-28T01:21:22;14.43;;;10.88;;
55776;SDS011;54079;44.540;18.784;2023-02-28T01:23:49;15.20;;;11.95;;
55776;SDS011;54079;44.540;18.784;2023-02-28T01:26:18;12.90;;;10.30;;
55776;SDS011;54079;44.540;18.784;2023-02-28T01:28:46;11.70;;;9.60;;
55776;SDS011;54079;44.540;18.784;2023-02-28T01:31:13;10.27;;;8.13;;
55776;SDS011;54079;44.540;18.784;2023-02-28T01:33:40;15.05;;;10.15;;
55776;SDS011;54079;44.540;18.784;2023-02-28T01:36:07;9.93;;;8.63;;
55776;SDS011;54079;44.540;18.784;2023-02-28T01:38:36;14.43;;;10.77;;
55776;SDS011;54079;44.540;18.784;2023-02-28T01:41:02;11.43;;;9.00;;
55776;SDS011;54079;44.540;18.784;2023-02-28T01:43:39;11.10;;;9.27;;
55776;SDS011;54079;44.540;18.784;2023-02-28T01:46:29;11.82;;;8.63;;
55776;SDS011;54079;44.540;18.784;2023-02-28T01:48:59;11.00;;;8.73;;
55776;SDS011;54079;44.540;18.784;2023-02-28T01:51:50;9.57;;;7.78;;
55776;SDS011;54079;44.540;18.784;2023-02-28T01:54:30;6.40;;;5.50;;
55776;SDS011;54079;44.540;18.784;2023-02-28T01:57:00;7.05;;;6.22;;
55776;SDS011;54079;44.540;18.784;2023-02-28T01:59:31;8.10;;;6.03;;
55776;SDS011;54079;44.540;18.784;2023-02-28T02:02:00;6.28;;;5.22;;
55776;SDS011;54079;44.540;18.784;2023-02-28T02:04:39;7.22;;;5.43;;
55776;SDS011;54079;44.540;18.784;2023-02-28T02:07:13;7.57;;;5.82;;
55776;SDS011;54079;44.540;18.784;2023-02-28T02:09:39;6.55;;;5.18;;
55776;SDS011;54079;44.540;18.784;2023-02-28T02:12:10;5.30;;;4.57;;
55776;SDS011;54079;44.540;18.784;2023-02-28T02:15:24;4.43;;;3.97;;
55776;SDS011;54079;44.540;18.784;2023-02-28T02:23:43;4.93;;;4.30;;
55776;SDS011;54079;44.540;18.784;2023-02-28T02:26:44;3.95;;;3.42;;
55776;SDS011;54079;44.540;18.784;2023-02-28T02:35:24;3.63;;;3.28;;
55776;SDS011;54079;44.540;18.784;2023-02-28T02:40:58;3.83;;;3.08;;
55776;SDS011;54079;44.540;18.784;2023-02-28T02:43:34;2.83;;;2.30;;
55776;SDS011;54079;44.540;18.784;2023-02-28T02:46:15;3.70;;;2.88;;
55776;SDS011;54079;44.540;18.784;2023-02-28T02:48:46;3.15;;;2.53;;
55776;SDS011;54079;44.540;18.784;2023-02-28T02:51:14;2.78;;;2.58;;
55776;SDS011;54079;44.540;18.784;2023-02-28T02:53:46;2.72;;;2.30;;
55776;SDS011;54079;44.540;18.784;2023-02-28T02:56:18;3.30;;;2.38;;
55776;SDS011;54079;44.540;18.784;2023-02-28T02:58:48;2.95;;;2.65;;
55776;SDS011;54079;44.540;18.784;2023-02-28T03:01:18;2.65;;;2.10;;
55776;SDS011;54079;44.540;18.784;2023-02-28T03:03:54;2.47;;;2.28;;
55776;SDS011;54079;44.540;18.784;2023-02-28T03:06:24;3.28;;;2.67;;
55776;SDS011;54079;44.540;18.784;2023-02-28T03:08:51;2.47;;;2.05;;
55776;SDS011;54079;44.540;18.784;2023-02-28T03:11:17;2.72;;;2.25;;
55776;SDS011;54079;44.540;18.784;2023-02-28T03:13:54;2.85;;;2.38;;
55776;SDS011;54079;44.540;18.784;2023-02-28T03:19:37;2.22;;;1.80;;
55776;SDS011;54079;44.540;18.784;2023-02-28T03:25:31;2.60;;;2.40;;
55776;SDS011;54079;44.540;18.784;2023-02-28T03:35:50;3.20;;;2.35;;
55776;SDS011;54079;44.540;18.784;2023-02-28T03:41:06;4.18;;;3.28;;
55776;SDS011;54079;44.540;18.784;2023-02-28T03:44:36;3.97;;;3.17;;
55776;SDS011;54079;44.540;18.784;2023-02-28T03:47:06;4.47;;;3.13;;
55776;SDS011;54079;44.540;18.784;2023-02-28T03:49:43;4.05;;;3.20;;
55776;SDS011;54079;44.540;18.784;2023-02-28T03:52:14;4.65;;;3.67;;
55776;SDS011;54079;44.540;18.784;2023-02-28T03:54:45;5.07;;;3.50;;
55776;SDS011;54079;44.540;18.784;2023-02-28T04:00:12;4.80;;;3.67;;
55776;SDS011;54079;44.540;18.784;2023-02-28T04:02:46;5.22;;;3.78;;
55776;SDS011;54079;44.540;18.784;2023-02-28T04:05:18;4.03;;;3.60;;
55776;SDS011;54079;44.540;18.784;2023-02-28T04:07:44;5.60;;;4.55;;
55776;SDS011;54079;44.540;18.784;2023-02-28T04:10:11;9.65;;;5.82;;
55776;SDS011;54079;44.540;18.784;2023-02-28T04:12:38;6.28;;;5.50;;
55776;SDS011;54079;44.540;18.784;2023-02-28T04:15:04;8.88;;;6.65;;
55776;SDS011;54079;44.540;18.784;2023-02-28T04:17:30;6.68;;;5.75;;
55776;SDS011;54079;44.540;18.784;2023-02-28T04:19:56;8.45;;;5.75;;
55776;SDS011;54079;44.540;18.784;2023-02-28T04:22:22;6.82;;;5.07;;
55776;SDS011;54079;44.540;18.784;2023-02-28T04:24:51;8.27;;;6.32;;
55776;SDS011;54079;44.540;18.784;2023-02-28T04:27:18;8.80;;;6.60;;
55776;SDS011;54079;44.540;18.784;2023-02-28T04:29:45;8.13;;;6.28;;
55776;SDS011;54079;44.540;18.784;2023-02-28T04:32:10;8.70;;;6.47;;
55776;SDS011;54079;44.540;18.784;2023-02-28T04:34:36;8.77;;;6.45;;
55776;SDS011;54079;44.540;18.784;2023-02-28T04:37:03;10.15;;;7.57;;
55776;SDS011;54079;44.540;18.784;2023-02-28T04:39:29;10.20;;;7.68;;
55776;SDS011;54079;44.540;18.784;2023-02-28T04:41:55;10.75;;;7.65;;
55776;SDS011;54079;44.540;18.784;2023-02-28T04:44:22;9.32;;;7.75;;
55776;SDS011;54079;44.540;18.784;2023-02-28T04:46:48;10.60;;;7.75;;
55776;SDS011;54079;44.540;18.784;2023-02-28T04:49:15;11.18;;;8.68;;
55776;SDS011;54079;44.540;18.784;2023-02-28T04:51:41;11.40;;;8.90;;
55776;SDS011;54079;44.540;18.784;2023-02-28T04:54:07;10.38;;;8.27;;
55776;SDS011;54079;44.540;18.784;2023-02-28T04:56:33;9.07;;;7.18;;
55776;SDS011;54079;44.540;18.784;2023-02-28T04:58:59;8.70;;;7.40;;
55776;SDS011;54079;44.540;18.784;2023-02-28T05:01:26;9.60;;;7.68;;
55776;SDS011;54079;44.540;18.784;2023-02-28T05:03:55;10.15;;;8.95;;
55776;SDS011;54079;44.540;18.784;2023-02-28T05:06:22;10.40;;;8.75;;
55776;SDS011;54079;44.540;18.784;2023-02-28T05:08:49;10.07;;;8.27;;
55776;SDS011;54079;44.540;18.784;2023-02-28T05:11:17;12.77;;;9.65;;
55776;SDS011;54079;44.540;18.784;2023-02-28T05:13:44;13.98;;;10.82;;
55776;SDS011;54079;44.540;18.784;2023-02-28T05:16:11;11.43;;;9.00;;
55776;SDS011;54079;44.540;18.784;2023-02-28T05:18:37;14.02;;;10.88;;
55776;SDS011;54079;44.540;18.784;2023-02-28T05:21:03;12.13;;;9.75;;
55776;SDS011;54079;44.540;18.784;2023-02-28T05:23:29;14.63;;;11.68;;
55776;SDS011;54079;44.540;18.784;2023-02-28T05:25:55;12.63;;;10.30;;
55776;SDS011;54079;44.540;18.784;2023-02-28T05:28:22;16.45;;;12.65;;
55776;SDS011;54079;44.540;18.784;2023-02-28T05:30:48;13.68;;;11.48;;
55776;SDS011;54079;44.540;18.784;2023-02-28T05:33:14;13.10;;;10.80;;
55776;SDS011;54079;44.540;18.784;2023-02-28T05:35:40;11.32;;;9.63;;
55776;SDS011;54079;44.540;18.784;2023-02-28T05:38:07;12.02;;;10.43;;
55776;SDS011;54079;44.540;18.784;2023-02-28T05:40:34;11.32;;;9.30;;
55776;SDS011;54079;44.540;18.784;2023-02-28T05:43:00;13.95;;;10.63;;
55776;SDS011;54079;44.540;18.784;2023-02-28T05:45:26;12.48;;;10.48;;
55776;SDS011;54079;44.540;18.784;2023-02-28T05:47:53;10.75;;;8.57;;
55776;SDS011;54079;44.540;18.784;2023-02-28T05:50:19;13.18;;;10.07;;
55776;SDS011;54079;44.540;18.784;2023-02-28T05:52:49;12.88;;;9.82;;
55776;SDS011;54079;44.540;18.784;2023-02-28T05:55:15;11.32;;;9.38;;
55776;SDS011;54079;44.540;18.784;2023-02-28T05:57:41;10.75;;;9.35;;
55776;SDS011;54079;44.540;18.784;2023-02-28T06:00:08;13.23;;;9.90;;
55776;SDS011;54079;44.540;18.784;2023-02-28T06:02:39;13.02;;;9.23;;
55776;SDS011;54079;44.540;18.784;2023-02-28T06:05:16;12.02;;;10.73;;
55776;SDS011;54079;44.540;18.784;2023-02-28T06:07:45;10.30;;;8.52;;
55776;SDS011;54079;44.540;18.784;2023-02-28T06:10:11;10.45;;;8.45;;
55776;SDS011;54079;44.540;18.784;2023-02-28T06:12:38;12.00;;;9.52;;
55776;SDS011;54079;44.540;18.784;2023-02-28T06:15:06;10.77;;;9.13;;
55776;SDS011;54079;44.540;18.784;2023-02-28T06:17:36;12.23;;;9.75;;
55776;SDS011;54079;44.540;18.784;2023-02-28T06:20:03;12.45;;;9.13;;
55776;SDS011;54079;44.540;18.784;2023-02-28T06:22:30;12.27;;;9.27;;
55776;SDS011;54079;44.540;18.784;2023-02-28T06:24:56;11.15;;;9.00;;
55776;SDS011;54079;44.540;18.784;2023-02-28T06:27:22;11.43;;;8.48;;
55776;SDS011;54079;44.540;18.784;2023-02-28T06:29:52;12.55;;;9.35;;
55776;SDS011;54079;44.540;18.784;2023-02-28T06:32:21;13.30;;;10.23;;
55776;SDS011;54079;44.540;18.784;2023-02-28T06:34:47;10.30;;;7.90;;
55776;SDS011;54079;44.540;18.784;2023-02-28T06:37:16;13.02;;;9.38;;
55776;SDS011;54079;44.540;18.784;2023-02-28T06:39:43;10.07;;;8.50;;
55776;SDS011;54079;44.540;18.784;2023-02-28T06:42:10;10.77;;;8.30;;
55776;SDS011;54079;44.540;18.784;2023-02-28T06:44:36;10.23;;;7.72;;
55776;SDS011;54079;44.540;18.784;2023-02-28T06:47:04;9.75;;;8.70;;
55776;SDS011;54079;44.540;18.784;2023-02-28T06:49:32;10.65;;;8.32;;
55776;SDS011;54079;44.540;18.784;2023-02-28T06:51:59;9.25;;;7.57;;
55776;SDS011;54079;44.540;18.784;2023-02-28T06:54:27;13.85;;;10.13;;
55776;SDS011;54079;44.540;18.784;2023-02-28T06:56:58;9.77;;;7.95;;
55776;SDS011;54079;44.540;18.784;2023-02-28T06:59:25;8.63;;;6.93;;
55776;SDS011;54079;44.540;18.784;2023-02-28T07:01:51;11.73;;;9.57;;
55776;SDS011;54079;44.540;18.784;2023-02-28T07:04:18;11.13;;;8.20;;
55776;SDS011;54079;44.540;18.784;2023-02-28T07:06:44;11.38;;;8.57;;
55776;SDS011;54079;44.540;18.784;2023-02-28T07:09:11;9.98;;;7.57;;
55776;SDS011;54079;44.540;18.784;2023-02-28T07:11:39;8.13;;;6.82;;
55776;SDS011;54079;44.540;18.784;2023-02-28T07:14:08;12.82;;;9.40;;
55776;SDS011;54079;44.540;18.784;2023-02-28T07:16:35;11.65;;;8.82;;
55776;SDS011;54079;44.540;18.784;2023-02-28T07:19:01;11.48;;;8.93;;
55776;SDS011;54079;44.540;18.784;2023-02-28T07:21:30;14.05;;;10.52;;
55776;SDS011;54079;44.540;18.784;2023-02-28T07:23:57;10.98;;;8.13;;
55776;SDS011;54079;44.540;18.784;2023-02-28T07:26:24;12.10;;;8.65;;
55776;SDS011;54079;44.540;18.784;2023-02-28T07:28:50;10.32;;;8.32;;
55776;SDS011;54079;44.540;18.784;2023-02-28T07:31:18;13.32;;;9.25;;
55776;SDS011;54079;44.540;18.784;2023-02-28T07:33:45;9.32;;;7.40;;
55776;SDS011;54079;44.540;18.784;2023-02-28T07:36:15;9.05;;;7.25;;
55776;SDS011;54079;44.540;18.784;2023-02-28T07:38:45;7.68;;;6.68;;
55776;SDS011;54079;44.540;18.784;2023-02-28T07:41:15;12.02;;;8.95;;
55776;SDS011;54079;44.540;18.784;2023-02-28T07:43:43;14.82;;;9.43;;
55776;SDS011;54079;44.540;18.784;2023-02-28T07:46:11;14.82;;;9.90;;
55776;SDS011;54079;44.540;18.784;2023-02-28T07:48:42;15.48;;;10.85;;
55776;SDS011;54079;44.540;18.784;2023-02-28T07:51:09;7.00;;;6.30;;
55776;SDS011;54079;44.540;18.784;2023-02-28T07:53:35;13.70;;;9.90;;
55776;SDS011;54079;44.540;18.784;2023-02-28T07:56:02;11.00;;;8.20;;
55776;SDS011;54079;44.540;18.784;2023-02-28T07:58:29;9.05;;;7.15;;
55776;SDS011;54079;44.540;18.784;2023-02-28T08:00:56;11.65;;;8.10;;
55776;SDS011;54079;44.540;18.784;2023-02-28T08:03:22;13.32;;;8.82;;
55776;SDS011;54079;44.540;18.784;2023-02-28T08:05:49;16.17;;;10.68;;
55776;SDS011;54079;44.540;18.784;2023-02-28T08:08:16;13.63;;;8.10;;
55776;SDS011;54079;44.540;18.784;2023-02-28T08:10:42;9.98;;;7.53;;
55776;SDS011;54079;44.540;18.784;2023-02-28T08:13:08;8.45;;;6.38;;
55776;SDS011;54079;44.540;18.784;2023-02-28T08:15:35;12.55;;;9.30;;
55776;SDS011;54079;44.540;18.784;2023-02-28T08:18:01;8.27;;;6.72;;
55776;SDS011;54079;44.540;18.784;2023-02-28T08:20:27;13.70;;;9.27;;
55776;SDS011;54079;44.540;18.784;2023-02-28T08:22:53;9.73;;;6.50;;
55776;SDS011;54079;44.540;18.784;2023-02-28T08:25:19;14.43;;;10.13;;
55776;SDS011;54079;44.540;18.784;2023-02-28T08:27:46;11.32;;;8.15;;
55776;SDS011;54079;44.540;18.784;2023-02-28T08:30:12;11.77;;;8.10;;
55776;SDS011;54079;44.540;18.784;2023-02-28T08:32:40;13.48;;;9.77;;
55776;SDS011;54079;44.540;18.784;2023-02-28T08:35:06;20.05;;;12.73;;
55776;SDS011;54079;44.540;18.784;2023-02-28T08:37:34;9.25;;;6.80;;
55776;SDS011;54079;44.540;18.784;2023-02-28T08:40:00;13.93;;;10.07;;
55776;SDS011;54079;44.540;18.784;2023-02-28T08:42:27;13.05;;;8.77;;
55776;SDS011;54079;44.540;18.784;2023-02-28T08:44:53;9.50;;;8.10;;
55776;SDS011;54079;44.540;18.784;2023-02-28T08:47:19;11.32;;;8.25;;
55776;SDS011;54079;44.540;18.784;2023-02-28T08:49:45;13.23;;;9.43;;
55776;SDS011;54079;44.540;18.784;2023-02-28T08:52:11;9.10;;;6.88;;
55776;SDS011;54079;44.540;18.784;2023-02-28T08:54:37;12.73;;;9.27;;
55776;SDS011;54079;44.540;18.784;2023-02-28T08:57:03;7.57;;;6.65;;
55776;SDS011;54079;44.540;18.784;2023-02-28T08:59:29;7.18;;;5.78;;
55776;SDS011;54079;44.540;18.784;2023-02-28T09:01:55;10.80;;;8.75;;
55776;SDS011;54079;44.540;18.784;2023-02-28T09:04:21;10.88;;;7.70;;
55776;SDS011;54079;44.540;18.784;2023-02-28T09:06:47;12.40;;;8.80;;
55776;SDS011;54079;44.540;18.784;2023-02-28T09:09:14;12.80;;;9.38;;
55776;SDS011;54079;44.540;18.784;2023-02-28T09:11:41;11.07;;;8.15;;
55776;SDS011;54079;44.540;18.784;2023-02-28T09:14:07;12.35;;;9.60;;
55776;SDS011;54079;44.540;18.784;2023-02-28T09:16:33;13.13;;;10.40;;
55776;SDS011;54079;44.540;18.784;2023-02-28T09:19:00;19.35;;;14.07;;
55776;SDS011;54079;44.540;18.784;2023-02-28T09:21:26;16.05;;;11.40;;
55776;SDS011;54079;44.540;18.784;2023-02-28T09:23:53;14.40;;;11.13;;
55776;SDS011;54079;44.540;18.784;2023-02-28T09:28:47;16.58;;;11.13;;
55776;SDS011;54079;44.540;18.784;2023-02-28T09:31:14;14.02;;;10.93;;
55776;SDS011;54079;44.540;18.784;2023-02-28T09:33:49;15.80;;;12.65;;
55776;SDS011;54079;44.540;18.784;2023-02-28T09:36:17;12.18;;;9.75;;
55776;SDS011;54079;44.540;18.784;2023-02-28T09:38:43;15.18;;;10.82;;
55776;SDS011;54079;44.540;18.784;2023-02-28T09:41:14;16.83;;;12.52;;
55776;SDS011;54079;44.540;18.784;2023-02-28T09:43:45;13.93;;;10.77;;
55776;SDS011;54079;44.540;18.784;2023-02-28T09:46:32;14.85;;;11.95;;
55776;SDS011;54079;44.540;18.784;2023-02-28T09:49:05;17.48;;;13.55;;
55776;SDS011;54079;44.540;18.784;2023-02-28T09:54:20;15.80;;;12.27;;
55776;SDS011;54079;44.540;18.784;2023-02-28T09:56:50;14.38;;;12.30;;
55776;SDS011;54079;44.540;18.784;2023-02-28T09:59:46;16.85;;;12.80;;
55776;SDS011;54079;44.540;18.784;2023-02-28T10:02:15;16.40;;;13.23;;
55776;SDS011;54079;44.540;18.784;2023-02-28T10:04:56;17.25;;;13.27;;
55776;SDS011;54079;44.540;18.784;2023-02-28T10:07:34;14.70;;;11.50;;
55776;SDS011;54079;44.540;18.784;2023-02-28T10:13:04;19.60;;;13.98;;
55776;SDS011;54079;44.540;18.784;2023-02-28T10:15:51;21.52;;;15.82;;
55776;SDS011;54079;44.540;18.784;2023-02-28T10:18:24;20.63;;;15.10;;
55776;SDS011;54079;44.540;18.784;2023-02-28T10:20:55;21.00;;;14.38;;
55776;SDS011;54079;44.540;18.784;2023-02-28T10:26:00;22.10;;;15.73;;
55776;SDS011;54079;44.540;18.784;2023-02-28T10:28:37;20.45;;;15.77;;
55776;SDS011;54079;44.540;18.784;2023-02-28T10:31:04;20.27;;;14.45;;
55776;SDS011;54079;44.540;18.784;2023-02-28T10:33:34;20.77;;;15.98;;
55776;SDS011;54079;44.540;18.784;2023-02-28T10:36:01;25.02;;;17.95;;
55776;SDS011;54079;44.540;18.784;2023-02-28T10:38:32;19.45;;;15.27;;
55776;SDS011;54079;44.540;18.784;2023-02-28T10:44:20;16.98;;;13.80;;
55776;SDS011;54079;44.540;18.784;2023-02-28T10:46:48;22.73;;;15.85;;
55776;SDS011;54079;44.540;18.784;2023-02-28T10:49:28;21.25;;;15.23;;
55776;SDS011;54079;44.540;18.784;2023-02-28T10:51:55;22.52;;;17.27;;
55776;SDS011;54079;44.540;18.784;2023-02-28T10:54:30;22.67;;;17.13;;
55776;SDS011;54079;44.540;18.784;2023-02-28T10:57:07;21.25;;;15.48;;
55776;SDS011;54079;44.540;18.784;2023-02-28T10:59:42;18.45;;;13.40;;
55776;SDS011;54079;44.540;18.784;2023-02-28T11:05:02;20.55;;;15.05;;
55776;SDS011;54079;44.540;18.784;2023-02-28T11:07:55;16.35;;;13.13;;
55776;SDS011;54079;44.540;18.784;2023-02-28T11:10:36;21.20;;;15.77;;
55776;SDS011;54079;44.540;18.784;2023-02-28T11:13:02;20.40;;;14.32;;
55776;SDS011;54079;44.540;18.784;2023-02-28T11:15:30;18.23;;;14.05;;
55776;SDS011;54079;44.540;18.784;2023-02-28T11:20:28;20.83;;;15.43;;
55776;SDS011;54079;44.540;18.784;2023-02-28T11:22:56;19.92;;;14.32;;
55776;SDS011;54079;44.540;18.784;2023-02-28T11:28:00;21.23;;;15.48;;
55776;SDS011;54079;44.540;18.784;2023-02-28T11:30:39;18.45;;;14.52;;
55776;SDS011;54079;44.540;18.784;2023-02-28T11:36:00;20.88;;;13.82;;
55776;SDS011;54079;44.540;18.784;2023-02-28T11:38:28;23.70;;;16.38;;
55776;SDS011;54079;44.540;18.784;2023-02-28T11:46:24;25.92;;;17.08;;
55776;SDS011;54079;44.540;18.784;2023-02-28T11:51:53;21.33;;;15.35;;
55776;SDS011;54079;44.540;18.784;2023-02-28T11:57:18;20.00;;;15.68;;
55776;SDS011;54079;44.540;18.784;2023-02-28T12:10:35;26.88;;;16.90;;
55776;SDS011;54079;44.540;18.784;2023-02-28T12:18:53;27.08;;;16.65;;
55776;SDS011;54079;44.540;18.784;2023-02-28T12:26:57;26.50;;;18.30;;
55776;SDS011;54079;44.540;18.784;2023-02-28T12:29:36;25.88;;;16.45;;
55776;SDS011;54079;44.540;18.784;2023-02-28T12:32:13;23.38;;;16.80;;
55776;SDS011;54079;44.540;18.784;2023-02-28T12:34:57;24.00;;;17.33;;
55776;SDS011;54079;44.540;18.784;2023-02-28T12:37:35;24.92;;;18.05;;
55776;SDS011;54079;44.540;18.784;2023-02-28T12:40:12;22.77;;;17.02;;
55776;SDS011;54079;44.540;18.784;2023-02-28T12:43:05;24.98;;;17.20;;
55776;SDS011;54079;44.540;18.784;2023-02-28T12:45:46;24.60;;;17.77;;
55776;SDS011;54079;44.540;18.784;2023-02-28T12:51:28;22.10;;;16.27;;
55776;SDS011;54079;44.540;18.784;2023-02-28T12:56:38;24.02;;;17.80;;
55776;SDS011;54079;44.540;18.784;2023-02-28T13:05:07;27.10;;;18.67;;
55776;SDS011;54079;44.540;18.784;2023-02-28T13:10:43;24.83;;;17.88;;
55776;SDS011;54079;44.540;18.784;2023-02-28T13:13:15;25.92;;;18.95;;
55776;SDS011;54079;44.540;18.784;2023-02-28T13:16:08;28.33;;;18.90;;
55776;SDS011;54079;44.540;18.784;2023-02-28T13:18:45;20.55;;;15.13;;
55776;SDS011;54079;44.540;18.784;2023-02-28T13:21:25;24.55;;;18.73;;
55776;SDS011;54079;44.540;18.784;2023-02-28T13:23:57;25.95;;;17.98;;
55776;SDS011;54079;44.540;18.784;2023-02-28T13:31:27;22.63;;;16.38;;
55776;SDS011;54079;44.540;18.784;2023-02-28T13:36:28;23.08;;;16.27;;
55776;SDS011;54079;44.540;18.784;2023-02-28T13:39:44;25.25;;;17.20;;
55776;SDS011;54079;44.540;18.784;2023-02-28T13:42:14;24.55;;;16.27;;
55776;SDS011;54079;44.540;18.784;2023-02-28T13:45:18;25.60;;;17.80;;
55776;SDS011;54079;44.540;18.784;2023-02-28T13:48:16;26.00;;;17.65;;
55776;SDS011;54079;44.540;18.784;2023-02-28T13:50:44;23.38;;;16.23;;
55776;SDS011;54079;44.540;18.784;2023-02-28T14:01:13;27.13;;;18.65;;
55776;SDS011;54079;44.540;18.784;2023-02-28T14:03:45;26.77;;;18.35;;
55776;SDS011;54079;44.540;18.784;2023-02-28T14:06:23;24.30;;;16.73;;
55776;SDS011;54079;44.540;18.784;2023-02-28T14:11:49;29.42;;;18.95;;
55776;SDS011;54079;44.540;18.784;2023-02-28T14:17:16;26.95;;;18.67;;
55776;SDS011;54079;44.540;18.784;2023-02-28T14:19:43;28.05;;;19.92;;
55776;SDS011;54079;44.540;18.784;2023-02-28T14:27:48;29.58;;;19.20;;
55776;SDS011;54079;44.540;18.784;2023-02-28T14:30:20;27.90;;;18.95;;
55776;SDS011;54079;44.540;18.784;2023-02-28T14:39:07;27.35;;;18.70;;
55776;SDS011;54079;44.540;18.784;2023-02-28T14:41:39;30.13;;;19.40;;
55776;SDS011;54079;44.540;18.784;2023-02-28T14:44:14;30.23;;;20.00;;
55776;SDS011;54079;44.540;18.784;2023-02-28T14:46:53;27.23;;;18.08;;
55776;SDS011;54079;44.540;18.784;2023-02-28T14:49:26;34.60;;;20.77;;
55776;SDS011;54079;44.540;18.784;2023-02-28T14:52:07;32.50;;;19.42;;
55776;SDS011;54079;44.540;18.784;2023-02-28T14:54:38;33.15;;;19.98;;
55776;SDS011;54079;44.540;18.784;2023-02-28T14:57:05;29.15;;;18.60;;
55776;SDS011;54079;44.540;18.784;2023-02-28T14:59:34;41.35;;;23.48;;
55776;SDS011;54079;44.540;18.784;2023-02-28T15:05:42;28.83;;;18.27;;
55776;SDS011;54079;44.540;18.784;2023-02-28T15:08:02;33.97;;;19.77;;
55776;SDS011;54079;44.540;18.784;2023-02-28T15:10:30;28.52;;;18.85;;
55776;SDS011;54079;44.540;18.784;2023-02-28T15:15:27;35.70;;;23.45;;
55776;SDS011;54079;44.540;18.784;2023-02-28T15:21:12;35.58;;;23.00;;
55776;SDS011;54079;44.540;18.784;2023-02-28T15:23:42;39.88;;;22.50;;
55776;SDS011;54079;44.540;18.784;2023-02-28T15:26:15;36.83;;;21.15;;
55776;SDS011;54079;44.540;18.784;2023-02-28T15:28:43;38.67;;;21.98;;
55776;SDS011;54079;44.540;18.784;2023-02-28T15:31:23;39.78;;;23.65;;
55776;SDS011;54079;44.540;18.784;2023-02-28T15:33:54;39.85;;;22.95;;
55776;SDS011;54079;44.540;18.784;2023-02-28T15:36:24;38.60;;;21.92;;
55776;SDS011;54079;44.540;18.784;2023-02-28T15:38:52;42.35;;;23.83;;
55776;SDS011;54079;44.540;18.784;2023-02-28T15:41:26;37.63;;;22.75;;
55776;SDS011;54079;44.540;18.784;2023-02-28T15:46:54;33.58;;;20.88;;
55776;SDS011;54079;44.540;18.784;2023-02-28T15:49:23;29.85;;;18.58;;
55776;SDS011;54079;44.540;18.784;2023-02-28T15:51:50;34.15;;;20.98;;
55776;SDS011;54079;44.540;18.784;2023-02-28T15:54:19;32.50;;;19.13;;
55776;SDS011;54079;44.540;18.784;2023-02-28T15:57:03;33.92;;;21.88;;
55776;SDS011;54079;44.540;18.784;2023-02-28T15:59:33;37.03;;;20.90;;
55776;SDS011;54079;44.540;18.784;2023-02-28T16:02:03;33.28;;;20.00;;
55776;SDS011;54079;44.540;18.784;2023-02-28T16:04:35;33.90;;;20.35;;
55776;SDS011;54079;44.540;18.784;2023-02-28T16:07:03;34.90;;;19.42;;
55776;SDS011;54079;44.540;18.784;2023-02-28T16:09:30;34.78;;;21.85;;
55776;SDS011;54079;44.540;18.784;2023-02-28T16:11:59;33.42;;;20.67;;
55776;SDS011;54079;44.540;18.784;2023-02-28T16:14:27;33.38;;;19.52;;
55776;SDS011;54079;44.540;18.784;2023-02-28T16:17:03;34.17;;;20.63;;
55776;SDS011;54079;44.540;18.784;2023-02-28T16:19:31;30.55;;;17.83;;
55776;SDS011;54079;44.540;18.784;2023-02-28T16:21:57;32.72;;;18.70;;
55776;SDS011;54079;44.540;18.784;2023-02-28T16:24:23;32.35;;;19.00;;
55776;SDS011;54079;44.540;18.784;2023-02-28T16:26:50;32.72;;;18.40;;
55776;SDS011;54079;44.540;18.784;2023-02-28T16:29:22;29.65;;;18.33;;
55776;SDS011;54079;44.540;18.784;2023-02-28T16:32:00;30.88;;;18.20;;
55776;SDS011;54079;44.540;18.784;2023-02-28T16:34:27;32.70;;;19.83;;
55776;SDS011;54079;44.540;18.784;2023-02-28T16:36:53;38.05;;;20.10;;
55776;SDS011;54079;44.540;18.784;2023-02-28T16:39:19;31.85;;;19.13;;
55776;SDS011;54079;44.540;18.784;2023-02-28T16:41:45;36.47;;;21.42;;
55776;SDS011;54079;44.540;18.784;2023-02-28T16:44:21;36.50;;;20.40;;
55776;SDS011;54079;44.540;18.784;2023-02-28T16:46:54;31.13;;;18.63;;
55776;SDS011;54079;44.540;18.784;2023-02-28T16:49:20;35.55;;;22.38;;
55776;SDS011;54079;44.540;18.784;2023-02-28T16:51:46;31.83;;;18.45;;
55776;SDS011;54079;44.540;18.784;2023-02-28T16:54:12;33.70;;;19.23;;
55776;SDS011;54079;44.540;18.784;2023-02-28T16:56:39;30.38;;;17.52;;
55776;SDS011;54079;44.540;18.784;2023-02-28T16:59:09;31.45;;;18.58;;
55776;SDS011;54079;44.540;18.784;2023-02-28T17:01:36;30.25;;;17.90;;
55776;SDS011;54079;44.540;18.784;2023-02-28T17:04:02;26.08;;;16.50;;
55776;SDS011;54079;44.540;18.784;2023-02-28T17:06:29;28.58;;;17.27;;
55776;SDS011;54079;44.540;18.784;2023-02-28T17:08:56;29.27;;;18.08;;